Time;durP1;ratioP1;P1;durP2;ratioP2;P2;SDS_P1;SDS_P2;PMS_P1;PMS_P2;Temp;Humidity;BMP_temperature;BMP_pressure;BME280_temperature;BME280_humidity;BME280_pressure;Samples;Min_cycle;Max_cycle;Signal;HPM_P1;HPM_P2
2022/05/06 00:02:07;;;;;;;30.60;24.60;;;12.20;99.90;;;;;;5093616;28;20222;-77
2022/05/06 00:04:36;;;;;;;30.97;24.33;;;12.20;99.90;;;;;;5093968;28;20217;-78
2022/05/06 00:07:03;;;;;;;31.77;26.70;;;12.20;99.90;;;;;;5094056;28;20192;-77
2022/05/06 00:09:30;;;;;;;28.43;24.60;;;12.20;99.90;;;;;;5093974;28;20204;-77
2022/05/06 00:11:57;;;;;;;34.57;27.23;;;12.20;99.90;;;;;;5093739;28;20620;-76
2022/05/06 00:14:24;;;;;;;32.90;25.70;;;12.20;99.90;;;;;;5093826;28;20223;-78
2022/05/06 00:16:51;;;;;;;29.73;23.80;;;12.20;99.90;;;;;;5093856;28;20193;-77
2022/05/06 00:19:18;;;;;;;29.43;24.17;;;12.20;99.90;;;;;;5094036;28;20203;-78
2022/05/06 00:21:46;;;;;;;32.40;25.03;;;12.20;99.90;;;;;;5093665;28;20203;-77
2022/05/06 00:24:13;;;;;;;28.87;23.33;;;12.10;99.90;;;;;;5095469;28;20224;-78
2022/05/06 00:26:41;;;;;;;29.87;24.37;;;12.10;99.90;;;;;;5097979;28;20576;-77
2022/05/06 00:29:08;;;;;;;27.67;22.33;;;12.10;99.90;;;;;;5097734;28;20200;-77
2022/05/06 00:31:35;;;;;;;28.87;23.67;;;12.10;99.90;;;;;;5097629;28;20203;-76
2022/05/06 00:34:01;;;;;;;29.10;24.83;;;12.10;99.90;;;;;;5097715;28;20596;-77
2022/05/06 00:36:29;;;;;;;33.30;26.90;;;12.10;99.90;;;;;;5097851;28;20196;-77
2022/05/06 00:38:57;;;;;;;38.47;28.13;;;12.10;99.90;;;;;;5097677;28;20199;-77
2022/05/06 00:41:25;;;;;;;35.40;27.77;;;12.10;99.90;;;;;;5097475;28;20722;-77
2022/05/06 00:43:52;;;;;;;38.20;27.23;;;12.10;99.90;;;;;;5097750;28;20234;-76
2022/05/06 00:46:20;;;;;;;32.03;26.33;;;12.10;99.90;;;;;;5097536;28;20256;-76
2022/05/06 00:48:48;;;;;;;35.87;28.23;;;12.10;99.90;;;;;;5097677;28;20193;-77
2022/05/06 00:51:18;;;;;;;35.53;28.27;;;12.10;99.90;;;;;;5097371;28;20222;-76
2022/05/06 00:53:45;;;;;;;32.30;25.30;;;12.00;99.90;;;;;;5097215;28;20224;-77
2022/05/06 00:56:15;;;;;;;26.30;22.10;;;12.10;99.90;;;;;;5097368;28;20664;-76
2022/05/06 00:58:44;;;;;;;27.70;23.03;;;12.10;99.90;;;;;;5097488;28;20211;-76
2022/05/06 01:01:11;;;;;;;25.50;20.73;;;12.00;99.90;;;;;;5097072;28;20573;-77
2022/05/06 01:03:38;;;;;;;32.80;23.60;;;12.10;99.90;;;;;;5097099;28;20233;-77
2022/05/06 01:06:13;;;;;;;30.43;23.40;;;12.00;99.90;;;;;;5097113;28;20215;-76
2022/05/06 01:08:41;;;;;;;33.30;25.30;;;12.00;99.90;;;;;;5096939;28;20198;-77
2022/05/06 01:11:08;;;;;;;30.33;25.00;;;12.00;99.90;;;;;;5096944;28;20199;-77
2022/05/06 01:13:43;;;;;;;30.37;23.43;;;12.00;99.90;;;;;;5096966;28;20216;-78
2022/05/06 01:16:13;;;;;;;24.60;21.50;;;12.00;99.90;;;;;;5097265;28;20198;-77
2022/05/06 01:18:45;;;;;;;26.07;20.83;;;12.10;99.90;;;;;;5097000;28;20261;-77
2022/05/06 01:21:20;;;;;;;25.80;22.10;;;12.10;99.90;;;;;;5096612;28;20206;-78
2022/05/06 01:23:48;;;;;;;30.53;24.40;;;12.10;99.90;;;;;;5096874;28;20306;-78
2022/05/06 01:26:15;;;;;;;28.50;23.83;;;12.10;99.90;;;;;;5096721;28;20364;-78
2022/05/06 01:28:43;;;;;;;30.90;23.07;;;12.10;99.90;;;;;;5096902;28;20291;-76
2022/05/06 01:31:14;;;;;;;33.83;26.03;;;12.10;99.90;;;;;;5096594;28;20196;-78
2022/05/06 01:33:44;;;;;;;35.47;25.70;;;12.10;99.90;;;;;;5096790;28;20634;-76
2022/05/06 01:36:12;;;;;;;33.30;25.13;;;12.10;99.90;;;;;;5095299;28;20195;-77
2022/05/06 01:38:45;;;;;;;27.83;23.23;;;12.10;99.90;;;;;;5096600;28;20277;-78
2022/05/06 01:41:22;;;;;;;33.83;25.80;;;12.10;99.90;;;;;;5096381;28;20564;-78
2022/05/06 01:44:05;;;;;;;26.67;22.23;;;12.10;99.90;;;;;;5096463;28;20215;-76
2022/05/06 01:46:36;;;;;;;24.53;21.80;;;12.10;99.90;;;;;;5095710;28;20700;-77
2022/05/06 01:49:05;;;;;;;27.20;24.20;;;12.10;99.90;;;;;;5096422;28;20205;-76
2022/05/06 01:51:34;;;;;;;35.37;29.37;;;12.10;99.90;;;;;;5096258;28;20237;-78
2022/05/06 01:54:05;;;;;;;30.60;26.17;;;12.10;99.90;;;;;;5096470;28;20201;-76
2022/05/06 01:56:34;;;;;;;31.37;27.07;;;12.10;99.90;;;;;;5096077;28;20187;-76
2022/05/06 01:59:01;;;;;;;28.47;24.93;;;12.00;99.90;;;;;;5096208;28;20222;-77
2022/05/06 02:01:33;;;;;;;27.03;23.60;;;12.10;99.90;;;;;;5095866;28;20223;-77
2022/05/06 02:06:45;;;;;;;27.10;23.93;;;12.10;99.90;;;;;;5095888;28;20648;-77
2022/05/06 02:09:19;;;;;;;29.80;25.03;;;12.10;99.90;;;;;;5096146;28;20199;-76
2022/05/06 02:12:09;;;;;;;28.93;24.43;;;12.10;99.90;;;;;;5095790;28;20215;-78
2022/05/06 02:14:48;;;;;;;27.43;23.10;;;12.10;99.90;;;;;;5095805;28;20283;-76
2022/05/06 02:17:34;;;;;;;31.83;27.10;;;12.10;99.90;;;;;;5114474;28;20206;-77
2022/05/06 02:20:26;;;;;;;29.53;25.43;;;12.10;99.90;;;;;;5095763;28;20689;-77
2022/05/06 02:23:22;;;;;;;27.57;24.67;;;12.00;99.90;;;;;;5095849;28;20793;-76
2022/05/06 02:25:57;;;;;;;30.00;22.10;;;12.00;99.90;;;;;;5095642;28;20278;-76
2022/05/06 02:28:32;;;;;;;31.17;21.77;;;12.00;99.90;;;;;;5095638;28;20217;-76
2022/05/06 02:33:51;;;;;;;28.00;22.17;;;12.00;99.90;;;;;;5095793;28;20210;-77
2022/05/06 02:36:24;;;;;;;25.47;20.07;;;12.00;99.90;;;;;;5095579;28;20696;-77
2022/05/06 02:38:51;;;;;;;27.30;22.83;;;12.00;99.90;;;;;;5095473;28;20222;-76
2022/05/06 02:41:18;;;;;;;28.47;21.70;;;12.00;99.90;;;;;;5095428;28;20282;-80
2022/05/06 02:43:58;;;;;;;30.03;23.60;;;12.00;99.90;;;;;;5095733;28;20582;-77
2022/05/06 02:46:29;;;;;;;27.33;21.67;;;12.00;99.90;;;;;;5094734;28;20217;-77
2022/05/06 02:48:57;;;;;;;23.00;19.57;;;12.00;99.90;;;;;;5099431;28;20195;-78
2022/05/06 02:51:24;;;;;;;20.73;18.37;;;12.00;99.90;;;;;;5095387;28;20285;-78
2022/05/06 02:53:51;;;;;;;25.47;18.97;;;12.00;99.90;;;;;;5089818;28;20216;-78
2022/05/06 02:56:24;;;;;;;24.00;20.37;;;11.90;99.90;;;;;;5088013;28;20188;-78
2022/05/06 02:58:55;;;;;;;23.23;19.23;;;11.90;99.90;;;;;;5095535;28;20311;-79
2022/05/06 03:01:28;;;;;;;24.57;20.60;;;11.90;99.90;;;;;;5096015;28;20690;-79
2022/05/06 03:03:56;;;;;;;22.63;18.30;;;11.80;99.90;;;;;;5095954;28;20223;-78
2022/05/06 03:06:23;;;;;;;25.43;22.70;;;11.80;99.90;;;;;;5095650;28;20219;-79
2022/05/06 03:08:52;;;;;;;24.20;18.67;;;11.70;99.90;;;;;;5095407;28;20200;-78
2022/05/06 03:11:24;;;;;;;20.30;16.67;;;11.80;99.90;;;;;;5095019;28;20195;-76
2022/05/06 03:13:57;;;;;;;27.83;20.93;;;11.70;99.90;;;;;;5095203;28;20215;-76
2022/05/06 03:16:31;;;;;;;26.10;20.20;;;11.70;99.90;;;;;;5094180;28;20192;-77
2022/05/06 03:19:00;;;;;;;26.60;20.60;;;11.70;99.90;;;;;;5115140;27;20318;-77
2022/05/06 03:21:27;;;;;;;23.30;18.93;;;11.70;99.90;;;;;;5092638;28;20216;-79
2022/05/06 03:23:54;;;;;;;25.20;19.50;;;11.70;99.90;;;;;;5093812;28;20219;-79
2022/05/06 03:26:22;;;;;;;23.33;18.77;;;11.60;99.90;;;;;;5086251;28;20296;-80
2022/05/06 03:28:49;;;;;;;21.70;16.90;;;11.70;99.90;;;;;;5072755;28;20192;-79
2022/05/06 03:31:18;;;;;;;25.57;19.47;;;11.60;99.90;;;;;;5074113;28;20672;-80
2022/05/06 03:33:57;;;;;;;26.93;19.83;;;11.60;99.90;;;;;;5074176;28;20221;-77
2022/05/06 03:36:29;;;;;;;27.00;20.40;;;11.60;99.90;;;;;;5074201;28;20210;-78
2022/05/06 03:39:04;;;;;;;31.07;22.43;;;11.60;99.90;;;;;;5074584;28;20203;-78
2022/05/06 03:41:37;;;;;;;24.23;18.83;;;11.60;99.90;;;;;;5074183;28;20744;-77
2022/05/06 03:44:07;;;;;;;21.17;17.33;;;11.60;99.90;;;;;;5074416;28;20743;-77
2022/05/06 03:46:37;;;;;;;22.73;17.80;;;11.60;99.90;;;;;;5073218;28;20240;-77
2022/05/06 03:49:06;;;;;;;23.70;18.93;;;11.60;99.90;;;;;;5074258;28;20291;-78
2022/05/06 03:51:33;;;;;;;22.23;18.37;;;11.70;99.90;;;;;;5074039;28;20218;-78
2022/05/06 03:54:07;;;;;;;21.03;17.70;;;11.60;99.90;;;;;;5074429;28;20676;-77
2022/05/06 03:56:35;;;;;;;23.17;18.23;;;11.70;99.90;;;;;;5073891;28;20279;-77
2022/05/06 03:59:06;;;;;;;25.13;20.70;;;11.60;99.90;;;;;;5073482;28;20636;-77
2022/05/06 04:01:34;;;;;;;24.00;19.53;;;11.60;99.90;;;;;;5074156;28;20197;-77
2022/05/06 04:04:03;;;;;;;33.83;24.10;;;11.60;99.90;;;;;;5074240;28;20204;-77
2022/05/06 04:06:34;;;;;;;34.27;25.50;;;11.60;99.90;;;;;;5074164;28;20219;-77
2022/05/06 04:09:03;;;;;;;40.27;26.57;;;11.60;99.90;;;;;;5074318;28;20253;-77
2022/05/06 04:11:33;;;;;;;32.60;24.87;;;11.70;99.90;;;;;;5074085;28;20580;-77
2022/05/06 04:14:04;;;;;;;30.90;24.00;;;11.70;99.90;;;;;;5073911;28;20196;-77
2022/05/06 04:16:35;;;;;;;27.17;22.47;;;11.70;99.90;;;;;;5073887;28;20292;-76
2022/05/06 04:19:05;;;;;;;30.93;25.33;;;11.70;99.90;;;;;;5073857;28;20222;-77
2022/05/06 04:24:20;;;;;;;27.50;21.47;;;11.70;99.90;;;;;;5073861;28;20684;-77
2022/05/06 04:26:47;;;;;;;30.60;23.57;;;11.70;99.90;;;;;;5073655;28;20259;-78
2022/05/06 04:29:15;;;;;;;25.30;21.23;;;11.80;99.90;;;;;;5073997;28;20279;-77
2022/05/06 04:31:41;;;;;;;29.50;23.70;;;11.70;99.90;;;;;;5073354;28;20203;-77
2022/05/06 04:34:11;;;;;;;22.60;20.20;;;11.80;99.90;;;;;;5073516;28;20196;-77
2022/05/06 04:36:40;;;;;;;23.90;21.30;;;11.70;99.90;;;;;;5073588;28;20249;-77
2022/05/06 04:39:08;;;;;;;22.30;18.67;;;11.80;99.90;;;;;;5073780;28;20679;-77
2022/05/06 04:41:45;;;;;;;27.37;20.97;;;11.80;99.90;;;;;;5073528;28;20201;-77
2022/05/06 04:44:12;;;;;;;26.37;20.73;;;11.80;99.90;;;;;;5073588;28;20386;-77
2022/05/06 04:46:39;;;;;;;25.77;22.13;;;11.80;99.90;;;;;;5073329;28;20224;-78
2022/05/06 04:49:06;;;;;;;27.50;21.60;;;11.80;99.90;;;;;;5073978;28;20612;-77
2022/05/06 04:51:34;;;;;;;29.00;23.53;;;11.80;99.90;;;;;;5073485;28;20662;-77
2022/05/06 04:54:06;;;;;;;32.47;23.97;;;11.80;99.90;;;;;;5073783;28;20601;-77
2022/05/06 04:56:34;;;;;;;26.20;20.60;;;11.80;99.90;;;;;;5073731;28;20189;-77
2022/05/06 04:59:09;;;;;;;20.97;16.90;;;11.80;99.90;;;;;;5074352;28;20564;-77
2022/05/06 05:01:43;;;;;;;25.57;19.20;;;11.90;99.90;;;;;;5073690;28;20200;-77
2022/05/06 05:04:10;;;;;;;25.17;19.23;;;11.90;99.90;;;;;;5074255;28;20222;-77
2022/05/06 05:06:39;;;;;;;23.27;19.43;;;12.00;99.90;;;;;;5073760;28;20217;-77
2022/05/06 05:09:11;;;;;;;23.80;21.17;;;11.90;99.90;;;;;;5073272;28;20228;-77
2022/05/06 05:11:41;;;;;;;21.87;18.33;;;11.90;99.90;;;;;;5076554;28;20220;-77
2022/05/06 05:14:13;;;;;;;21.60;17.50;;;12.00;99.90;;;;;;5077017;28;20201;-77
2022/05/06 05:16:41;;;;;;;25.07;20.53;;;12.00;99.90;;;;;;5077164;28;20197;-78
2022/05/06 05:19:08;;;;;;;24.47;19.77;;;12.00;99.90;;;;;;5076753;28;20196;-77
2022/05/06 05:21:42;;;;;;;23.27;19.27;;;12.10;99.90;;;;;;5076394;28;20226;-78
2022/05/06 05:24:11;;;;;;;26.57;23.87;;;12.10;99.90;;;;;;5076770;28;20203;-77
2022/05/06 05:26:39;;;;;;;23.67;19.30;;;12.10;99.90;;;;;;5076671;28;20220;-77
2022/05/06 05:29:07;;;;;;;25.67;22.93;;;12.10;99.90;;;;;;5076586;28;20235;-77
2022/05/06 05:31:34;;;;;;;25.10;22.73;;;12.20;99.90;;;;;;5076293;28;20196;-77
2022/05/06 05:34:02;;;;;;;24.90;22.40;;;12.30;99.90;;;;;;5076410;28;20304;-77
2022/05/06 05:36:29;;;;;;;28.10;24.13;;;12.30;99.90;;;;;;5076613;28;20284;-77
2022/05/06 05:38:57;;;;;;;27.00;24.23;;;12.40;99.90;;;;;;5076351;28;20194;-77
2022/05/06 05:41:27;;;;;;;25.27;22.63;;;12.50;99.90;;;;;;5075944;28;20198;-77
2022/05/06 05:49:30;;;;;;;21.83;19.63;;;12.70;99.90;;;;;;5076184;28;20192;-77
2022/05/06 05:51:57;;;;;;;23.87;19.53;;;12.70;99.90;;;;;;5077521;28;20588;-77
2022/05/06 05:54:26;;;;;;;22.83;20.43;;;12.80;99.90;;;;;;5076219;28;20677;-77
2022/05/06 05:56:55;;;;;;;23.23;18.40;;;12.80;99.90;;;;;;5075881;28;20194;-77
2022/05/06 05:59:23;;;;;;;23.40;21.03;;;12.80;99.90;;;;;;5075754;28;20247;-77
2022/05/06 06:01:50;;;;;;;17.77;15.77;;;12.70;99.90;;;;;;5075622;28;20288;-77
2022/05/06 06:04:17;;;;;;;18.30;15.13;;;12.80;99.90;;;;;;5075758;28;20201;-77
2022/05/06 06:06:46;;;;;;;20.43;16.67;;;12.80;99.90;;;;;;5075809;28;20270;-77
2022/05/06 06:09:17;;;;;;;19.43;16.90;;;12.80;99.90;;;;;;5075640;28;20239;-77
2022/05/06 06:11:45;;;;;;;24.13;21.00;;;12.80;99.90;;;;;;5075619;28;20199;-77
2022/05/06 06:14:16;;;;;;;21.77;19.53;;;12.90;99.90;;;;;;5075769;28;20200;-77
2022/05/06 06:16:43;;;;;;;20.57;18.13;;;12.90;99.90;;;;;;5075639;28;20198;-77
2022/05/06 06:19:11;;;;;;;22.90;17.70;;;12.90;99.90;;;;;;5075678;28;20194;-77
2022/05/06 06:21:43;;;;;;;24.50;22.13;;;12.90;99.90;;;;;;5074640;28;20213;-77
2022/05/06 06:24:10;;;;;;;27.70;23.93;;;12.90;99.90;;;;;;5075617;28;20231;-77
2022/05/06 06:26:39;;;;;;;25.13;22.47;;;12.80;99.90;;;;;;5075413;28;20253;-77
2022/05/06 06:29:10;;;;;;;22.80;20.70;;;12.80;99.90;;;;;;5079734;28;20203;-77
2022/05/06 06:31:39;;;;;;;23.10;20.70;;;12.90;99.90;;;;;;5074815;28;20196;-77
2022/05/06 06:34:06;;;;;;;24.40;22.10;;;12.90;99.90;;;;;;5075267;28;20201;-77
2022/05/06 06:36:37;;;;;;;23.13;21.00;;;12.90;99.90;;;;;;5075400;28;20678;-77
2022/05/06 06:39:04;;;;;;;21.67;19.50;;;12.90;99.90;;;;;;5075417;28;20193;-77
2022/05/06 06:41:36;;;;;;;22.87;20.47;;;12.90;99.90;;;;;;5074982;28;20214;-77
2022/05/06 06:44:03;;;;;;;22.70;20.33;;;12.90;99.90;;;;;;5076777;28;20313;-77
2022/05/06 06:47:01;;;;;;;19.67;17.57;;;12.80;99.90;;;;;;5020376;28;20251;-77
2022/05/06 06:49:49;;;;;;;18.23;15.67;;;12.80;99.90;;;;;;5075407;28;20197;-77
2022/05/06 06:52:34;;;;;;;18.73;15.97;;;12.90;99.90;;;;;;5093151;28;20228;-77
2022/05/06 06:55:02;;;;;;;21.70;18.60;;;12.90;99.90;;;;;;5074986;28;20198;-78
2022/05/06 06:57:31;;;;;;;21.93;17.87;;;12.90;99.90;;;;;;5074751;28;20671;-77
2022/05/06 06:59:58;;;;;;;23.07;19.40;;;12.90;99.90;;;;;;5074869;28;20583;-77
2022/05/06 07:02:27;;;;;;;23.90;17.27;;;12.90;99.90;;;;;;5074408;28;20224;-77
2022/05/06 07:04:54;;;;;;;19.07;16.40;;;12.90;99.90;;;;;;5074893;28;20198;-77
2022/05/06 07:12:51;;;;;;;17.60;15.07;;;13.10;99.90;;;;;;5074373;28;20220;-77
2022/05/06 07:15:18;;;;;;;16.30;13.83;;;13.20;99.90;;;;;;5074580;28;20207;-77
2022/05/06 07:17:46;;;;;;;19.83;16.23;;;13.30;99.90;;;;;;5074462;28;20196;-77
2022/05/06 07:20:13;;;;;;;21.73;19.73;;;13.30;99.90;;;;;;5074584;28;20208;-77
2022/05/06 07:22:41;;;;;;;19.77;15.73;;;13.30;99.90;;;;;;5073984;28;20230;-77
2022/05/06 07:25:09;;;;;;;17.87;15.13;;;13.30;99.90;;;;;;5074842;28;20202;-77
2022/05/06 07:27:36;;;;;;;20.43;18.43;;;13.20;99.90;;;;;;5074827;28;20214;-78
2022/05/06 07:30:03;;;;;;;20.27;18.17;;;13.20;99.90;;;;;;5074599;28;20205;-77
2022/05/06 07:32:30;;;;;;;16.87;15.10;;;13.20;99.90;;;;;;5074255;28;20732;-77
2022/05/06 07:34:59;;;;;;;13.63;12.23;;;13.20;99.90;;;;;;5074222;28;20221;-78
2022/05/06 07:37:32;;;;;;;13.73;12.23;;;13.10;99.90;;;;;;5074229;28;20216;-77
2022/05/06 07:39:59;;;;;;;13.10;11.70;;;13.10;99.90;;;;;;5074653;28;20204;-77
2022/05/06 07:42:26;;;;;;;13.70;11.33;;;13.20;99.90;;;;;;5074043;28;20214;-78
2022/05/06 07:44:53;;;;;;;15.10;13.23;;;13.20;99.90;;;;;;5073957;28;20746;-77
2022/05/06 07:47:20;;;;;;;16.40;12.27;;;13.10;99.90;;;;;;5073557;28;20218;-77
2022/05/06 07:49:47;;;;;;;14.13;11.90;;;13.00;99.90;;;;;;5073984;28;20221;-79
2022/05/06 07:52:15;;;;;;;15.47;11.63;;;13.00;99.90;;;;;;5073959;28;20214;-77
2022/05/06 07:54:42;;;;;;;14.93;11.20;;;13.00;99.90;;;;;;5073902;28;20208;-77
2022/05/06 07:57:09;;;;;;;17.20;11.83;;;13.00;99.90;;;;;;5073943;28;20200;-77
2022/05/06 07:59:36;;;;;;;15.90;11.67;;;13.00;99.90;;;;;;5073900;28;20198;-77
2022/05/06 08:04:51;;;;;;;13.13;10.57;;;13.10;99.90;;;;;;5073915;28;20235;-78
2022/05/06 08:07:19;;;;;;;12.13;10.13;;;13.10;99.90;;;;;;5073637;28;20647;-77
2022/05/06 08:09:46;;;;;;;13.57;10.70;;;13.20;99.90;;;;;;5073772;28;20249;-78
2022/05/06 08:12:14;;;;;;;17.77;12.20;;;13.20;99.90;;;;;;5073323;28;20249;-77
2022/05/06 08:14:42;;;;;;;17.13;11.10;;;13.30;99.90;;;;;;5073746;28;20201;-78
2022/05/06 08:17:09;;;;;;;18.37;12.00;;;13.40;99.90;;;;;;5073649;28;20294;-78
2022/05/06 08:19:36;;;;;;;17.40;15.70;;;13.50;99.90;;;;;;5073456;28;20712;-77
2022/05/06 08:22:05;;;;;;;17.17;15.57;;;13.60;99.90;;;;;;5073249;28;20217;-77
2022/05/06 08:24:34;;;;;;;13.13;11.87;;;13.40;99.90;;;;;;5073660;28;20204;-78
2022/05/06 08:27:01;;;;;;;15.80;11.47;;;13.40;99.90;;;;;;5073411;28;20205;-77
2022/05/06 08:29:28;;;;;;;11.47;10.13;;;13.30;99.90;;;;;;5073627;28;20213;-78
2022/05/06 08:31:55;;;;;;;12.33;10.00;;;13.30;99.90;;;;;;5073335;28;20193;-78
2022/05/06 08:34:22;;;;;;;15.47;10.50;;;13.30;99.90;;;;;;5073678;28;20194;-78
2022/05/06 08:36:50;;;;;;;10.47;9.37;;;13.30;99.90;;;;;;5073500;28;20293;-77
2022/05/06 08:39:17;;;;;;;10.70;8.67;;;13.30;99.90;;;;;;5073589;28;20198;-77
2022/05/06 08:41:45;;;;;;;12.97;10.40;;;13.40;99.90;;;;;;5073311;28;20204;-78
2022/05/06 08:52:33;;;;;;;16.33;13.90;;;13.80;99.90;;;;;;5077177;28;20213;-78
2022/05/06 08:55:00;;;;;;;11.53;9.87;;;13.90;99.90;;;;;;5095540;28;20811;-77
2022/05/06 08:57:30;;;;;;;12.63;10.30;;;14.00;99.90;;;;;;5077101;28;20198;-77
2022/05/06 08:59:57;;;;;;;13.33;9.60;;;14.00;99.90;;;;;;5077123;28;20284;-77
2022/05/06 09:02:24;;;;;;;12.90;10.43;;;14.20;99.90;;;;;;5076715;28;20226;-77
2022/05/06 09:04:51;;;;;;;14.67;13.07;;;14.30;99.90;;;;;;5076976;28;20198;-77
2022/05/06 09:07:20;;;;;;;12.30;10.00;;;14.20;99.90;;;;;;5076907;28;20210;-77
2022/05/06 09:10:13;;;;;;;16.33;15.03;;;14.40;99.90;;;;;;5076937;28;20201;-77
2022/05/06 09:12:42;;;;;;;16.53;15.13;;;14.60;99.90;;;;;;5076458;28;20693;-78
2022/05/06 09:17:56;;;;;;;14.00;12.77;;;14.90;99.90;;;;;;5076762;28;20536;-78
2022/05/06 09:20:24;;;;;;;13.57;12.37;;;14.90;99.90;;;;;;5076920;28;20723;-78
2022/05/06 09:22:52;;;;;;;12.47;11.37;;;15.30;99.90;;;;;;5076370;28;20244;-78
2022/05/06 09:25:35;;;;;;;10.60;8.47;;;15.60;99.90;;;;;;5076332;28;20686;-77
2022/05/06 09:28:03;;;;;;;10.30;9.10;;;15.80;99.90;;;;;;5076488;28;20205;-78
2022/05/06 09:30:30;;;;;;;15.07;13.83;;;16.00;99.90;;;;;;5076286;28;20198;-78
2022/05/06 09:32:57;;;;;;;17.40;15.13;;;16.00;99.90;;;;;;5076461;28;20716;-78
2022/05/06 09:35:28;;;;;;;15.33;14.10;;;16.00;99.90;;;;;;5076559;28;20742;-77
2022/05/06 09:37:55;;;;;;;14.73;13.43;;;16.10;99.90;;;;;;5076405;28;20197;-77
2022/05/06 09:40:28;;;;;;;14.93;13.70;;;16.20;99.90;;;;;;5076083;28;20283;-77
2022/05/06 09:42:59;;;;;;;16.60;14.87;;;16.40;99.90;;;;;;5076229;28;20320;-79
2022/05/06 09:45:33;;;;;;;9.43;7.80;;;16.40;99.90;;;;;;5075817;28;20197;-78
2022/05/06 09:48:02;;;;;;;13.57;12.37;;;16.60;99.90;;;;;;5075348;28;20217;-78
2022/05/06 09:50:34;;;;;;;15.93;14.53;;;16.70;99.90;;;;;;5075874;28;20204;-79
2022/05/06 09:53:02;;;;;;;9.37;7.97;;;16.90;99.90;;;;;;5075947;28;20249;-78
2022/05/06 09:55:30;;;;;;;10.60;9.50;;;16.90;99.90;;;;;;5075834;28;20194;-79
2022/05/06 09:57:59;;;;;;;12.90;11.77;;;17.10;99.90;;;;;;5074969;28;20190;-78
2022/05/06 10:00:27;;;;;;;10.70;9.80;;;17.10;99.90;;;;;;5076250;28;20202;-79
2022/05/06 10:02:56;;;;;;;9.10;7.90;;;17.10;99.90;;;;;;5075669;28;20701;-78
2022/05/06 10:05:24;;;;;;;11.30;10.20;;;17.10;99.90;;;;;;5076210;28;20248;-78
2022/05/06 10:07:57;;;;;;;7.87;6.70;;;17.00;99.90;;;;;;5075914;28;20594;-79
2022/05/06 10:10:26;;;;;;;8.60;7.70;;;17.10;99.90;;;;;;5075724;28;20198;-78
2022/05/06 10:12:56;;;;;;;11.97;8.20;;;17.00;99.90;;;;;;5075510;28;20214;-78
2022/05/06 10:15:26;;;;;;;11.67;10.53;;;16.90;99.90;;;;;;5075636;28;20194;-78
2022/05/06 10:17:56;;;;;;;9.90;8.30;;;16.90;99.90;;;;;;5075981;28;20716;-78
2022/05/06 10:20:48;;;;;;;11.80;10.70;;;16.80;99.90;;;;;;5075921;28;20481;-78
2022/05/06 10:23:18;;;;;;;10.67;7.47;;;16.90;99.90;;;;;;5076431;28;20214;-79
2022/05/06 10:25:54;;;;;;;8.37;7.40;;;16.90;99.90;;;;;;5076416;28;20195;-78
2022/05/06 10:34:35;;;;;;;9.67;8.67;;;17.00;99.90;;;;;;5075323;28;20683;-78
2022/05/06 10:37:14;;;;;;;11.87;9.53;;;16.80;99.90;;;;;;5075513;28;20678;-78
2022/05/06 10:39:41;;;;;;;9.43;6.67;;;16.90;99.90;;;;;;5075694;28;20197;-78
2022/05/06 10:42:10;;;;;;;11.03;8.37;;;17.00;99.90;;;;;;5074819;28;20607;-78
2022/05/06 10:44:38;;;;;;;7.93;6.87;;;17.30;99.90;;;;;;5075210;28;20209;-78
2022/05/06 10:47:44;;;;;;;10.73;8.80;;;17.50;99.90;;;;;;5077163;28;20593;-79
2022/05/06 10:50:18;;;;;;;10.77;7.77;;;17.70;99.90;;;;;;5075322;28;20198;-79
2022/05/06 10:52:47;;;;;;;9.30;6.77;;;18.00;99.90;;;;;;5074801;28;20223;-78
2022/05/06 10:55:16;;;;;;;7.93;7.00;;;18.20;99.90;;;;;;5074991;28;20228;-78
2022/05/06 10:58:02;;;;;;;9.67;6.50;;;18.40;99.90;;;;;;5074811;28;20657;-78
2022/05/06 11:00:30;;;;;;;9.47;8.10;;;18.20;99.90;;;;;;5074772;28;20195;-78
2022/05/06 11:02:59;;;;;;;8.73;6.60;;;18.20;99.90;;;;;;5092705;28;20677;-78
2022/05/06 11:05:29;;;;;;;10.87;8.07;;;18.10;99.90;;;;;;5074852;28;20208;-78
2022/05/06 11:07:58;;;;;;;9.80;6.67;;;17.70;99.90;;;;;;5074297;28;20211;-78
2022/05/06 11:10:28;;;;;;;7.33;6.47;;;17.70;99.90;;;;;;5074382;28;20211;-78
2022/05/06 11:12:57;;;;;;;9.30;7.43;;;17.90;99.90;;;;;;5074299;28;20220;-78
2022/05/06 11:15:26;;;;;;;9.50;7.20;;;17.50;99.90;;;;;;5074621;28;20203;-78
2022/05/06 11:17:57;;;;;;;7.60;6.20;;;17.60;99.90;;;;;;5074387;28;20214;-78
2022/05/06 11:20:27;;;;;;;8.47;6.77;;;17.70;99.90;;;;;;5074522;28;20663;-78
2022/05/06 11:23:00;;;;;;;8.90;7.97;;;18.00;99.90;;;;;;5074190;28;20682;-78
2022/05/06 11:25:29;;;;;;;10.37;7.67;;;17.70;99.90;;;;;;5092581;28;20191;-78
2022/05/06 11:27:58;;;;;;;9.23;6.70;;;17.80;99.90;;;;;;5073971;28;20315;-78
2022/05/06 11:30:26;;;;;;;7.07;6.37;;;17.90;99.90;;;;;;5074526;28;20265;-78
2022/05/06 11:32:54;;;;;;;12.10;7.77;;;17.90;99.90;;;;;;5074115;28;20224;-78
2022/05/06 11:35:28;;;;;;;7.77;6.60;;;17.60;99.90;;;;;;5074443;28;20583;-78
2022/05/06 11:37:56;;;;;;;10.47;6.37;;;17.50;99.90;;;;;;5074033;28;20191;-78
2022/05/06 11:40:35;;;;;;;7.93;7.13;;;17.60;99.90;;;;;;5074183;28;20773;-78
2022/05/06 11:43:04;;;;;;;7.87;6.40;;;17.60;99.90;;;;;;5074326;28;20223;-78
2022/05/06 11:48:23;;;;;;;7.73;6.90;;;17.60;99.90;;;;;;5036038;28;20223;-78
2022/05/06 11:50:57;;;;;;;8.67;7.77;;;17.60;99.90;;;;;;5074164;28;20202;-79
2022/05/06 11:53:29;;;;;;;10.90;9.90;;;17.70;99.90;;;;;;5074044;28;20696;-78
2022/05/06 11:55:56;;;;;;;12.23;11.33;;;17.90;99.90;;;;;;5074429;28;20672;-78
2022/05/06 11:58:25;;;;;;;11.17;10.17;;;17.90;99.90;;;;;;5074081;28;20219;-78
2022/05/06 12:00:54;;;;;;;8.77;7.10;;;17.80;99.90;;;;;;5073654;28;20230;-78
2022/05/06 12:03:24;;;;;;;7.60;6.13;;;17.70;99.90;;;;;;5073514;28;20729;-78
2022/05/06 12:06:09;;;;;;;10.43;7.83;;;17.80;99.90;;;;;;5074813;28;20243;-79
2022/05/06 12:08:38;;;;;;;7.77;7.07;;;17.70;99.90;;;;;;5074016;28;20211;-78
2022/05/06 12:11:07;;;;;;;9.17;6.60;;;17.70;99.90;;;;;;5073517;28;20210;-78
2022/05/06 12:13:36;;;;;;;6.57;5.73;;;17.60;99.90;;;;;;5073636;28;20226;-78
2022/05/06 12:16:16;;;;;;;6.33;5.57;;;17.70;99.90;;;;;;5073634;28;20199;-77
2022/05/06 12:18:53;;;;;;;8.30;7.10;;;17.80;99.90;;;;;;5073821;28;20244;-79
2022/05/06 12:21:23;;;;;;;8.10;6.03;;;17.90;99.90;;;;;;5077075;28;20210;-78
2022/05/06 12:23:54;;;;;;;8.37;6.30;;;18.10;99.90;;;;;;5077530;28;20309;-77
2022/05/06 12:26:35;;;;;;;7.87;6.30;;;18.20;99.90;;;;;;5078125;28;20249;-78
2022/05/06 12:29:03;;;;;;;7.63;6.53;;;18.00;99.90;;;;;;5078048;28;20223;-78
2022/05/06 12:31:32;;;;;;;12.40;11.30;;;18.10;99.90;;;;;;5077681;28;20295;-77
2022/05/06 12:34:06;;;;;;;10.50;9.50;;;18.20;99.90;;;;;;5077659;28;20219;-78
2022/05/06 12:36:33;;;;;;;11.60;10.60;;;18.30;99.90;;;;;;5078116;28;20200;-78
2022/05/06 12:39:01;;;;;;;8.60;6.30;;;18.40;99.90;;;;;;5077751;28;20195;-78
2022/05/06 12:41:35;;;;;;;39.03;13.20;;;18.40;99.90;;;;;;5077690;28;20199;-78
2022/05/06 12:44:16;;;;;;;11.90;9.00;;;18.50;99.90;;;;;;5077622;28;20220;-78
2022/05/06 12:46:43;;;;;;;14.77;10.90;;;18.50;99.90;;;;;;5077157;28;20227;-78
2022/05/06 12:51:55;;;;;;;16.00;9.77;;;18.80;99.90;;;;;;5077262;28;20196;-78
2022/05/06 12:54:23;;;;;;;14.13;11.17;;;18.80;99.90;;;;;;5077441;28;20200;-78
2022/05/06 12:56:50;;;;;;;12.00;6.67;;;18.80;99.90;;;;;;5077098;28;20206;-79
2022/05/06 12:59:17;;;;;;;10.83;6.20;;;18.70;99.90;;;;;;5076949;28;20283;-78
2022/05/06 13:01:45;;;;;;;15.63;14.23;;;18.80;99.90;;;;;;5077142;28;20207;-79
2022/05/06 13:04:12;;;;;;;16.40;14.87;;;18.80;99.90;;;;;;5077891;28;20197;-78
2022/05/06 13:06:39;;;;;;;14.97;13.40;;;18.70;99.90;;;;;;5077020;28;20281;-78
2022/05/06 13:09:06;;;;;;;13.60;10.93;;;18.70;99.90;;;;;;5076840;28;20701;-78
2022/05/06 13:11:34;;;;;;;15.03;11.60;;;18.70;99.90;;;;;;5076574;28;20223;-77
2022/05/06 13:14:01;;;;;;;12.00;10.87;;;18.80;99.90;;;;;;5076765;28;20308;-78
2022/05/06 13:16:29;;;;;;;9.17;8.33;;;18.80;99.90;;;;;;5076679;28;20205;-79
2022/05/06 13:18:56;;;;;;;10.60;5.63;;;18.90;99.90;;;;;;5076839;28;20284;-78
2022/05/06 13:21:23;;;;;;;10.43;8.13;;;19.00;99.90;;;;;;5076398;28;20290;-78
2022/05/06 13:23:50;;;;;;;7.20;5.03;;;19.00;99.90;;;;;;5076351;28;20256;-78
2022/05/06 13:26:17;;;;;;;7.37;6.10;;;19.00;99.90;;;;;;5076880;28;20673;-78
2022/05/06 13:28:45;;;;;;;10.47;7.67;;;19.00;99.90;;;;;;5076464;28;20221;-78
2022/05/06 13:31:13;;;;;;;11.87;10.67;;;19.00;99.90;;;;;;5076054;28;20204;-78